Time;durP1;ratioP1;P1;durP2;ratioP2;P2;SDS_P1;SDS_P2;PMS_P1;PMS_P2;Temp;Humidity;BMP_temperature;BMP_pressure;BME280_temperature;BME280_humidity;BME280_pressure;Samples;Min_cycle;Max_cycle;Signal;HPM_P1;HPM_P2
2023/06/17 00:01:17;;;;;;;6.95;4.00;;;;;;;;;;5036336;28;20144;-79
2023/06/17 00:03:44;;;;;;;8.98;4.80;;;;;;;;;;5019392;28;20095;-80
2023/06/17 00:06:11;;;;;;;7.60;3.95;;;;;;;;;;5039090;28;20229;-81
2023/06/17 00:08:37;;;;;;;6.40;4.15;;;;;;;;;;5040421;28;20045;-80
2023/06/17 00:11:04;;;;;;;5.75;3.80;;;;;;;;;;5035664;28;20045;-79
2023/06/17 00:13:32;;;;;;;5.90;3.80;;;;;;;;;;5033541;28;20049;-79
2023/06/17 00:15:59;;;;;;;7.18;3.75;;;;;;;;;;5052689;28;20046;-80
2023/06/17 00:18:26;;;;;;;6.05;3.85;;;;;;;;;;5046716;28;20076;-80
2023/06/17 00:20:53;;;;;;;6.60;4.10;;;;;;;;;;5034222;28;20041;-79
2023/06/17 00:23:23;;;;;;;9.05;4.28;;;;;;;;;;5016856;28;20049;-79
2023/06/17 00:25:50;;;;;;;8.20;4.00;;;;;;;;;;5017432;28;20400;-79
2023/06/17 00:28:16;;;;;;;9.30;4.63;;;;;;;;;;5036799;28;20669;-79
2023/06/17 00:30:46;;;;;;;8.20;4.35;;;;;;;;;;5040257;28;20067;-79
2023/06/17 00:33:14;;;;;;;7.55;3.97;;;;;;;;;;5017982;28;20426;-78
2023/06/17 00:35:41;;;;;;;6.40;4.40;;;;;;;;;;5033789;28;20052;-79
2023/06/17 00:38:08;;;;;;;8.45;4.95;;;;;;;;;;5032966;28;20045;-78
2023/06/17 00:40:34;;;;;;;7.47;4.57;;;;;;;;;;5029383;28;20041;-80
2023/06/17 00:43:01;;;;;;;6.65;4.25;;;;;;;;;;5014392;28;20041;-79
2023/06/17 00:45:28;;;;;;;9.68;4.82;;;;;;;;;;5033757;28;20049;-79
2023/06/17 00:47:54;;;;;;;9.93;5.28;;;;;;;;;;5032910;28;20459;-79
2023/06/17 00:50:22;;;;;;;6.60;4.53;;;;;;;;;;5031799;28;20113;-79
2023/06/17 00:52:51;;;;;;;8.88;5.20;;;;;;;;;;5030361;28;20107;-79
2023/06/17 00:55:17;;;;;;;9.02;5.07;;;;;;;;;;5032181;28;20045;-79
2023/06/17 00:57:47;;;;;;;7.75;5.50;;;;;;;;;;5030022;28;20139;-80
2023/06/17 01:00:15;;;;;;;9.82;5.93;;;;;;;;;;5028223;28;20100;-79
2023/06/17 01:02:43;;;;;;;8.93;5.30;;;;;;;;;;5028317;28;20065;-79
2023/06/17 01:05:12;;;;;;;8.68;6.00;;;;;;;;;;5026911;28;20094;-79
2023/06/17 01:07:46;;;;;;;8.45;5.10;;;;;;;;;;5028951;28;20107;-79
2023/06/17 01:10:19;;;;;;;9.93;5.40;;;;;;;;;;5036364;28;20084;-78
2023/06/17 01:12:47;;;;;;;8.90;5.38;;;;;;;;;;5015420;28;20095;-78
2023/06/17 01:15:16;;;;;;;8.68;5.80;;;;;;;;;;5013785;28;20137;-79
2023/06/17 01:17:46;;;;;;;14.77;5.72;;;;;;;;;;5030711;28;20055;-79
2023/06/17 01:20:15;;;;;;;10.73;6.30;;;;;;;;;;5030412;28;20068;-78
2023/06/17 01:22:42;;;;;;;9.38;5.40;;;;;;;;;;5013239;28;20064;-79
2023/06/17 01:25:13;;;;;;;8.35;5.38;;;;;;;;;;5030692;28;20045;-79
2023/06/17 01:27:41;;;;;;;10.40;5.75;;;;;;;;;;5031570;28;20076;-80
2023/06/17 01:30:08;;;;;;;8.85;5.40;;;;;;;;;;5019594;28;20048;-81
2023/06/17 01:32:35;;;;;;;7.82;5.80;;;;;;;;;;5031218;28;20055;-79
2023/06/17 01:35:10;;;;;;;9.88;5.60;;;;;;;;;;5031270;28;20042;-79
2023/06/17 01:37:42;;;;;;;9.98;5.95;;;;;;;;;;5031297;28;20109;-79
2023/06/17 01:40:10;;;;;;;13.65;6.45;;;;;;;;;;5029765;28;20053;-81
2023/06/17 01:42:41;;;;;;;11.35;5.63;;;;;;;;;;5030395;28;20037;-80
2023/06/17 01:45:08;;;;;;;8.88;6.13;;;;;;;;;;5031468;28;20052;-80
2023/06/17 01:47:35;;;;;;;11.73;6.25;;;;;;;;;;5030604;28;20088;-77
2023/06/17 01:50:03;;;;;;;9.32;6.05;;;;;;;;;;5030346;28;20678;-79
2023/06/17 01:52:30;;;;;;;7.95;5.57;;;;;;;;;;5028932;28;20071;-79
2023/06/17 01:54:57;;;;;;;10.65;6.32;;;;;;;;;;5030701;28;20501;-79
2023/06/17 01:57:25;;;;;;;12.25;6.38;;;;;;;;;;5030866;28;20577;-79
2023/06/17 01:59:52;;;;;;;9.20;6.10;;;;;;;;;;5030823;28;20048;-77
2023/06/17 02:02:19;;;;;;;9.02;6.32;;;;;;;;;;5032058;28;20050;-79
2023/06/17 02:04:47;;;;;;;8.77;6.10;;;;;;;;;;5032836;28;20049;-79
2023/06/17 02:07:16;;;;;;;10.00;6.25;;;;;;;;;;5030312;28;20049;-80
2023/06/17 02:09:44;;;;;;;10.05;5.90;;;;;;;;;;5031813;28;20091;-80
2023/06/17 02:12:11;;;;;;;9.23;5.72;;;;;;;;;;5030134;28;20045;-81
2023/06/17 02:14:39;;;;;;;10.98;5.93;;;;;;;;;;5031859;28;20045;-81
2023/06/17 02:17:08;;;;;;;9.32;6.00;;;;;;;;;;5031987;28;20045;-80
2023/06/17 02:19:35;;;;;;;13.73;6.25;;;;;;;;;;5030597;28;20045;-80
2023/06/17 02:22:02;;;;;;;8.63;5.78;;;;;;;;;;5012134;28;20076;-80
2023/06/17 02:24:28;;;;;;;11.48;6.30;;;;;;;;;;5031082;28;20049;-79
2023/06/17 02:26:56;;;;;;;10.70;6.00;;;;;;;;;;5031399;28;20042;-80
2023/06/17 02:29:22;;;;;;;10.88;7.03;;;;;;;;;;5034382;28;20050;-80
2023/06/17 02:31:49;;;;;;;13.95;7.05;;;;;;;;;;5034948;28;20048;-79
2023/06/17 02:34:16;;;;;;;11.15;7.28;;;;;;;;;;5030461;28;20068;-79
2023/06/17 02:36:43;;;;;;;12.77;6.72;;;;;;;;;;5029691;28;20045;-80
2023/06/17 02:39:10;;;;;;;12.85;7.13;;;;;;;;;;5030697;28;20052;-79
2023/06/17 02:41:38;;;;;;;15.02;7.55;;;;;;;;;;5028419;28;20056;-79
2023/06/17 02:44:04;;;;;;;14.45;7.10;;;;;;;;;;5013589;28;20049;-79
2023/06/17 02:46:31;;;;;;;12.60;6.97;;;;;;;;;;5029408;28;20049;-79
2023/06/17 02:48:59;;;;;;;12.02;7.40;;;;;;;;;;5029080;28;20049;-77
2023/06/17 02:51:27;;;;;;;12.07;7.28;;;;;;;;;;5028466;28;20053;-78
2023/06/17 02:53:54;;;;;;;13.48;8.13;;;;;;;;;;5028408;28;20099;-77
2023/06/17 02:56:22;;;;;;;12.48;8.15;;;;;;;;;;5012307;28;20546;-79
2023/06/17 02:58:50;;;;;;;11.13;7.63;;;;;;;;;;5028398;28;20033;-79
2023/06/17 03:01:16;;;;;;;12.25;7.40;;;;;;;;;;5030152;28;20119;-79
2023/06/17 03:03:44;;;;;;;13.55;7.57;;;;;;;;;;5028222;28;20470;-78
2023/06/17 03:06:13;;;;;;;11.60;8.40;;;;;;;;;;5029424;28;20055;-79
2023/06/17 03:08:42;;;;;;;12.40;8.07;;;;;;;;;;5027073;28;20053;-79
2023/06/17 03:11:09;;;;;;;11.85;8.38;;;;;;;;;;5025290;28;20042;-82
2023/06/17 03:13:39;;;;;;;13.13;8.00;;;;;;;;;;5026808;28;20053;-79
2023/06/17 03:16:16;;;;;;;11.10;7.50;;;;;;;;;;5012266;28;20060;-80
2023/06/17 03:18:44;;;;;;;13.35;8.40;;;;;;;;;;5026352;28;20889;-79
2023/06/17 03:21:10;;;;;;;14.30;8.45;;;;;;;;;;5026209;28;20125;-79
2023/06/17 03:23:40;;;;;;;18.65;8.60;;;;;;;;;;5026221;28;20084;-81
2023/06/17 03:26:10;;;;;;;12.93;7.97;;;;;;;;;;5026366;28;20045;-80
2023/06/17 03:28:41;;;;;;;12.65;8.18;;;;;;;;;;5026938;28;20449;-79
2023/06/17 03:31:08;;;;;;;12.88;7.80;;;;;;;;;;5032844;28;20072;-80
2023/06/17 03:33:34;;;;;;;11.82;7.88;;;;;;;;;;5030535;28;20086;-80
2023/06/17 03:36:01;;;;;;;12.27;7.85;;;;;;;;;;5031057;28;20053;-79
2023/06/17 03:38:28;;;;;;;15.55;7.60;;;;;;;;;;5028232;28;20041;-79
2023/06/17 03:40:54;;;;;;;12.10;8.32;;;;;;;;;;5028649;28;20108;-79
2023/06/17 03:43:21;;;;;;;15.18;8.30;;;;;;;;;;5027726;28;20041;-78
2023/06/17 03:45:49;;;;;;;13.93;8.27;;;;;;;;;;5028242;28;20053;-79
2023/06/17 03:48:15;;;;;;;13.85;8.20;;;;;;;;;;5029217;28;20041;-80
2023/06/17 03:50:42;;;;;;;13.85;8.25;;;;;;;;;;5025522;28;20152;-79
2023/06/17 03:53:09;;;;;;;11.40;7.90;;;;;;;;;;5026905;28;20056;-78
2023/06/17 03:55:36;;;;;;;15.13;7.82;;;;;;;;;;5011246;28;20580;-79
2023/06/17 03:58:03;;;;;;;12.70;8.02;;;;;;;;;;5027421;28;20053;-80
2023/06/17 04:00:31;;;;;;;19.08;8.30;;;;;;;;;;5026626;28;20041;-79
2023/06/17 04:02:58;;;;;;;11.93;7.93;;;;;;;;;;5028461;28;20113;-80
2023/06/17 04:05:31;;;;;;;12.63;8.43;;;;;;;;;;5025271;28;20041;-81
2023/06/17 04:07:59;;;;;;;14.73;8.10;;;;;;;;;;5027697;28;20049;-79
2023/06/17 04:10:26;;;;;;;15.00;8.45;;;;;;;;;;5029745;28;20091;-80
2023/06/17 04:12:53;;;;;;;11.23;8.35;;;;;;;;;;5032369;28;20505;-79
2023/06/17 04:15:19;;;;;;;12.98;8.18;;;;;;;;;;5032374;28;20046;-80
2023/06/17 04:17:46;;;;;;;19.30;8.40;;;;;;;;;;5015384;28;20056;-79
2023/06/17 04:20:12;;;;;;;12.75;8.45;;;;;;;;;;5031224;28;20576;-80
2023/06/17 04:22:40;;;;;;;13.20;8.35;;;;;;;;;;5032008;28;20056;-81
2023/06/17 04:25:09;;;;;;;13.13;8.23;;;;;;;;;;5034109;28;20068;-80
2023/06/17 04:27:38;;;;;;;14.15;8.50;;;;;;;;;;5034253;28;20060;-81
2023/06/17 04:30:08;;;;;;;10.98;7.78;;;;;;;;;;5038945;28;20123;-80
2023/06/17 04:32:38;;;;;;;14.68;8.40;;;;;;;;;;5034169;28;20053;-81
2023/06/17 04:35:09;;;;;;;11.82;7.35;;;;;;;;;;5033537;28;20049;-79
2023/06/17 04:37:42;;;;;;;9.65;6.97;;;;;;;;;;5032453;28;20041;-78
2023/06/17 04:40:12;;;;;;;13.00;6.72;;;;;;;;;;5015698;28;20132;-79
2023/06/17 04:42:45;;;;;;;9.43;6.93;;;;;;;;;;5032265;28;20111;-80
2023/06/17 04:45:12;;;;;;;11.85;7.03;;;;;;;;;;5034564;28;20053;-79
2023/06/17 04:47:39;;;;;;;10.98;6.32;;;;;;;;;;5033228;28;20468;-80
2023/06/17 04:50:06;;;;;;;11.48;6.63;;;;;;;;;;5015692;28;20037;-80
2023/06/17 04:52:33;;;;;;;9.43;6.32;;;;;;;;;;5031840;28;20045;-81
2023/06/17 04:55:03;;;;;;;10.60;6.25;;;;;;;;;;5032475;28;20494;-81
2023/06/17 04:57:29;;;;;;;11.80;6.95;;;;;;;;;;5015980;28;20049;-81
2023/06/17 04:59:56;;;;;;;9.43;6.10;;;;;;;;;;5034265;28;20041;-81
2023/06/17 05:02:23;;;;;;;10.98;6.20;;;;;;;;;;5042699;28;20037;-80
2023/06/17 05:04:51;;;;;;;10.43;6.28;;;;;;;;;;5049901;28;20033;-79
2023/06/17 05:07:17;;;;;;;10.73;5.80;;;;;;;;;;5047833;28;20080;-80
2023/06/17 05:09:44;;;;;;;14.32;6.45;;;;;;;;;;5034680;28;20046;-78
2023/06/17 05:12:11;;;;;;;10.38;6.32;;;;;;;;;;5030651;28;20053;-79
2023/06/17 05:14:38;;;;;;;8.18;5.68;;;;;;;;;;5031561;28;20564;-79
2023/06/17 05:17:05;;;;;;;10.63;5.88;;;;;;;;;;5014947;28;20092;-78
2023/06/17 05:19:31;;;;;;;8.40;6.10;;;;;;;;;;5031312;28;20055;-79
2023/06/17 05:21:58;;;;;;;11.35;5.88;;;;;;;;;;5030385;28;20057;-79
2023/06/17 05:24:26;;;;;;;11.13;6.03;;;;;;;;;;5031220;28;20097;-79
2023/06/17 05:26:54;;;;;;;9.63;5.80;;;;;;;;;;5031491;28;20049;-79
2023/06/17 05:29:22;;;;;;;11.18;5.95;;;;;;;;;;5031795;28;20068;-79
2023/06/17 05:31:49;;;;;;;12.35;6.20;;;;;;;;;;5011660;28;20045;-81
2023/06/17 05:34:15;;;;;;;8.05;5.82;;;;;;;;;;5030788;28;20045;-80
2023/06/17 05:36:42;;;;;;;12.40;6.40;;;;;;;;;;5013784;28;20093;-80
2023/06/17 05:39:10;;;;;;;11.50;6.03;;;;;;;;;;5023381;28;20041;-77
2023/06/17 05:41:36;;;;;;;10.32;6.22;;;;;;;;;;5039026;28;20041;-78
2023/06/17 05:44:04;;;;;;;9.52;6.13;;;;;;;;;;5063017;28;20037;-79
2023/06/17 05:46:30;;;;;;;11.60;6.55;;;;;;;;;;5026461;28;20059;-81
2023/06/17 05:48:58;;;;;;;12.02;6.82;;;;;;;;;;5039388;28;20052;-81
2023/06/17 05:51:27;;;;;;;9.15;6.53;;;;;;;;;;5042708;28;20044;-79
2023/06/17 05:53:56;;;;;;;10.80;6.80;;;;;;;;;;5037416;28;20390;-81
2023/06/17 05:56:23;;;;;;;10.60;6.70;;;;;;;;;;5028576;28;20120;-80
2023/06/17 05:58:50;;;;;;;10.45;6.63;;;;;;;;;;5028839;28;20449;-79
2023/06/17 06:01:25;;;;;;;;;;;;;;;;;;5038132;28;20367;-80
2023/06/17 06:03:52;;;;;;;10.15;6.80;;;;;;;;;;5027624;28;19961;-82
2023/06/17 06:06:18;;;;;;;9.10;6.75;;;;;;;;;;5026738;28;20041;-79
2023/06/17 06:08:45;;;;;;;11.95;6.68;;;;;;;;;;5011315;28;20033;-79
2023/06/17 06:11:12;;;;;;;11.75;6.75;;;;;;;;;;5026243;28;20037;-78
2023/06/17 06:13:38;;;;;;;10.88;7.10;;;;;;;;;;5028044;28;20049;-81
2023/06/17 06:16:05;;;;;;;12.05;7.10;;;;;;;;;;5028646;28;20065;-79
2023/06/17 06:18:32;;;;;;;11.70;7.07;;;;;;;;;;5027853;28;20119;-78
2023/06/17 06:20:58;;;;;;;15.05;7.03;;;;;;;;;;5017640;28;20471;-79
2023/06/17 06:23:25;;;;;;;9.55;7.13;;;;;;;;;;5020606;28;20103;-80
2023/06/17 06:25:52;;;;;;;17.20;7.93;;;;;;;;;;5010492;28;20061;-79
2023/06/17 06:28:18;;;;;;;15.07;8.10;;;;;;;;;;5029500;28;20045;-79
2023/06/17 06:30:47;;;;;;;11.23;7.43;;;;;;;;;;5031135;28;20148;-79
2023/06/17 06:33:14;;;;;;;10.77;7.28;;;;;;;;;;5013554;28;20053;-79
2023/06/17 06:35:41;;;;;;;12.98;8.25;;;;;;;;;;5007917;28;20057;-78
2023/06/17 06:38:12;;;;;;;12.95;8.23;;;;;;;;;;5025816;28;20512;-80
2023/06/17 06:40:40;;;;;;;13.68;8.18;;;;;;;;;;5025168;28;20125;-79
2023/06/17 06:43:07;;;;;;;13.70;8.38;;;;;;;;;;5028053;28;20569;-80
2023/06/17 06:45:54;;;;;;;11.73;8.27;;;;;;;;;;5030818;28;20147;-80
2023/06/17 06:48:21;;;;;;;13.35;8.25;;;;;;;;;;5028001;28;20045;-79
2023/06/17 06:50:49;;;;;;;16.00;7.95;;;;;;;;;;5043158;28;20053;-79
2023/06/17 06:53:19;;;;;;;12.15;7.78;;;;;;;;;;5018191;28;20041;-76
2023/06/17 06:55:45;;;;;;;13.80;8.60;;;;;;;;;;5039500;28;20045;-79
2023/06/17 06:58:12;;;;;;;13.95;7.93;;;;;;;;;;5028961;28;20053;-83
2023/06/17 07:00:39;;;;;;;16.33;8.32;;;;;;;;;;5047217;28;20054;-79
2023/06/17 07:03:08;;;;;;;15.63;9.48;;;;;;;;;;5028539;28;20383;-79
2023/06/17 07:05:35;;;;;;;16.27;8.85;;;;;;;;;;5010293;28;20045;-79
2023/06/17 07:08:02;;;;;;;13.82;8.43;;;;;;;;;;5010356;28;20137;-79
2023/06/17 07:10:29;;;;;;;13.90;8.45;;;;;;;;;;5025786;28;20052;-78
2023/06/17 07:12:56;;;;;;;14.15;8.23;;;;;;;;;;5027522;28;20132;-79
2023/06/17 07:15:23;;;;;;;11.13;7.45;;;;;;;;;;5010513;28;20529;-79
2023/06/17 07:17:49;;;;;;;11.27;7.60;;;;;;;;;;5033821;28;20152;-78
2023/06/17 07:20:16;;;;;;;11.35;7.63;;;;;;;;;;5041359;28;20075;-79
2023/06/17 07:22:45;;;;;;;13.05;7.53;;;;;;;;;;5039366;28;20109;-79
2023/06/17 07:25:12;;;;;;;12.85;8.00;;;;;;;;;;5040659;28;20049;-78
2023/06/17 07:27:39;;;;;;;15.90;8.20;;;;;;;;;;5038589;28;20049;-79
2023/06/17 07:30:06;;;;;;;13.80;9.80;;;;;;;;;;5044071;28;20136;-78
2023/06/17 07:32:33;;;;;;;17.65;10.32;;;;;;;;;;5040183;28;20079;-78
2023/06/17 07:35:01;;;;;;;16.77;9.85;;;;;;;;;;5040050;28;20048;-79
2023/06/17 07:37:28;;;;;;;16.15;10.43;;;;;;;;;;5042713;28;20049;-79
2023/06/17 07:39:56;;;;;;;21.05;10.70;;;;;;;;;;5034764;28;20041;-79
2023/06/17 07:42:23;;;;;;;15.63;10.40;;;;;;;;;;5034143;28;20052;-79
2023/06/17 07:44:49;;;;;;;13.52;9.52;;;;;;;;;;5031269;28;20052;-78
2023/06/17 07:47:16;;;;;;;16.98;10.00;;;;;;;;;;5036360;28;20069;-78
2023/06/17 07:49:44;;;;;;;16.77;9.20;;;;;;;;;;5032612;28;20060;-79
2023/06/17 07:52:10;;;;;;;15.88;8.93;;;;;;;;;;5030616;28;20045;-78
2023/06/17 07:54:37;;;;;;;15.82;9.50;;;;;;;;;;5031337;28;20037;-78
2023/06/17 07:57:04;;;;;;;18.17;9.57;;;;;;;;;;5028889;28;20172;-80
2023/06/17 07:59:31;;;;;;;15.90;9.48;;;;;;;;;;5030416;28;20045;-79
2023/06/17 08:01:58;;;;;;;15.45;9.18;;;;;;;;;;5030131;28;20099;-80
2023/06/17 08:04:25;;;;;;;12.18;9.27;;;;;;;;;;5030954;28;20045;-77
2023/06/17 08:06:52;;;;;;;14.95;9.82;;;;;;;;;;5029779;28;20050;-79
2023/06/17 08:09:18;;;;;;;13.93;9.85;;;;;;;;;;5030106;28;20057;-81
2023/06/17 08:11:47;;;;;;;16.63;10.73;;;;;;;;;;5030232;28;20581;-80
2023/06/17 08:14:15;;;;;;;15.85;10.45;;;;;;;;;;5031327;28;20494;-80
2023/06/17 08:16:42;;;;;;;15.88;9.80;;;;;;;;;;5029938;28;20458;-81
2023/06/17 08:19:09;;;;;;;16.38;9.88;;;;;;;;;;5030466;28;20053;-81
2023/06/17 08:21:37;;;;;;;17.48;10.27;;;;;;;;;;5030453;28;20631;-80
2023/06/17 08:24:21;;;;;;;16.95;9.70;;;;;;;;;;5030582;28;20549;-81
2023/06/17 08:26:48;;;;;;;13.45;9.40;;;;;;;;;;5030937;28;20104;-84
2023/06/17 08:29:15;;;;;;;16.98;9.75;;;;;;;;;;5031494;28;20072;-84
2023/06/17 08:31:43;;;;;;;16.10;9.93;;;;;;;;;;5031177;28;20048;-84
2023/06/17 08:34:10;;;;;;;16.08;10.80;;;;;;;;;;5010381;28;20052;-81
2023/06/17 08:36:40;;;;;;;16.83;10.82;;;;;;;;;;5012295;28;20069;-82
2023/06/17 08:39:08;;;;;;;14.48;10.07;;;;;;;;;;5010474;28;20772;-81
2023/06/17 08:41:36;;;;;;;16.70;11.00;;;;;;;;;;5010603;28;20046;-83
2023/06/17 08:44:04;;;;;;;19.98;10.43;;;;;;;;;;5011823;28;20037;-83
2023/06/17 08:46:31;;;;;;;18.42;10.90;;;;;;;;;;5012683;28;20069;-81
2023/06/17 08:48:58;;;;;;;15.38;10.63;;;;;;;;;;5020065;28;20042;-82
2023/06/17 08:51:24;;;;;;;18.30;11.63;;;;;;;;;;5016362;28;20562;-82
2023/06/17 08:53:52;;;;;;;15.73;11.45;;;;;;;;;;5009015;28;20046;-81
2023/06/17 08:56:18;;;;;;;19.60;11.68;;;;;;;;;;5013080;28;20069;-82
2023/06/17 08:58:45;;;;;;;15.73;11.07;;;;;;;;;;5029009;28;20045;-83
2023/06/17 09:01:12;;;;;;;15.65;11.25;;;;;;;;;;5028402;28;20072;-81
2023/06/17 09:03:44;;;;;;;17.65;10.90;;;;;;;;;;5034608;28;20441;-83
2023/06/17 09:06:17;;;;;;;16.38;11.13;;;;;;;;;;5026870;28;20045;-81
2023/06/17 09:08:43;;;;;;;15.07;11.10;;;;;;;;;;5020826;28;20122;-84
2023/06/17 09:11:10;;;;;;;15.13;10.88;;;;;;;;;;5021376;28;20116;-79
2023/06/17 09:13:37;;;;;;;14.43;10.73;;;;;;;;;;5029802;28;20045;-81
2023/06/17 09:16:04;;;;;;;16.58;10.77;;;;;;;;;;5030235;28;20038;-83
2023/06/17 09:18:34;;;;;;;13.82;10.25;;;;;;;;;;5031304;28;20052;-83
2023/06/17 09:21:02;;;;;;;19.83;11.32;;;;;;;;;;5028821;28;20497;-83
2023/06/17 09:23:28;;;;;;;14.27;10.65;;;;;;;;;;5029394;28;20080;-82
2023/06/17 09:26:02;;;;;;;18.85;11.15;;;;;;;;;;5017896;28;20160;-81
2023/06/17 09:28:29;;;;;;;15.00;11.07;;;;;;;;;;5020766;28;20417;-80
2023/06/17 09:30:59;;;;;;;20.48;10.80;;;;;;;;;;5024733;28;20068;-81
2023/06/17 09:33:26;;;;;;;15.73;9.95;;;;;;;;;;5021290;28;20088;-81
2023/06/17 09:36:08;;;;;;;11.25;8.57;;;;;;;;;;5018012;28;20046;-80
2023/06/17 09:38:35;;;;;;;12.55;8.10;;;;;;;;;;5013115;28;20125;-84
2023/06/17 09:41:02;;;;;;;11.40;7.70;;;;;;;;;;5008929;28;20225;-84
2023/06/17 09:43:29;;;;;;;13.65;8.20;;;;;;;;;;5009876;28;20137;-82
2023/06/17 09:45:59;;;;;;;13.00;8.27;;;;;;;;;;5020667;28;20049;-82
2023/06/17 09:48:31;;;;;;;14.27;8.70;;;;;;;;;;5031695;28;20073;-84
2023/06/17 09:50:58;;;;;;;12.48;8.88;;;;;;;;;;5030758;28;20049;-83
2023/06/17 09:53:29;;;;;;;19.33;8.65;;;;;;;;;;5031554;28;20046;-82
2023/06/17 09:55:57;;;;;;;11.70;8.35;;;;;;;;;;5024308;28;20072;-83
2023/06/17 09:58:26;;;;;;;10.18;8.00;;;;;;;;;;5029968;28;20046;-81
2023/06/17 10:00:53;;;;;;;13.32;8.57;;;;;;;;;;5030684;28;20068;-83
2023/06/17 10:03:22;;;;;;;12.75;7.38;;;;;;;;;;5031170;28;20091;-85
2023/06/17 10:05:54;;;;;;;9.00;6.75;;;;;;;;;;5028390;28;20763;-83
2023/06/17 10:08:21;;;;;;;12.35;7.63;;;;;;;;;;5008208;28;20514;-83
2023/06/17 10:10:48;;;;;;;9.77;7.10;;;;;;;;;;5007932;28;20042;-84
2023/06/17 10:13:17;;;;;;;12.05;7.65;;;;;;;;;;5007557;28;20050;-81
2023/06/17 10:15:44;;;;;;;12.23;7.45;;;;;;;;;;5007880;28;20044;-78
2023/06/17 10:18:12;;;;;;;14.38;6.75;;;;;;;;;;5007050;28;20485;-80
2023/06/17 10:20:40;;;;;;;9.52;7.18;;;;;;;;;;5007645;28;20042;-81
2023/06/17 10:23:06;;;;;;;14.07;7.28;;;;;;;;;;5020253;28;20045;-81
2023/06/17 10:25:33;;;;;;;10.52;7.30;;;;;;;;;;5027274;28;20083;-82
2023/06/17 10:28:01;;;;;;;12.35;7.20;;;;;;;;;;5041318;28;20107;-82
2023/06/17 10:30:28;;;;;;;9.98;6.55;;;;;;;;;;5042551;28;20107;-81
2023/06/17 10:32:56;;;;;;;13.82;7.15;;;;;;;;;;5027042;28;20051;-81
2023/06/17 10:35:24;;;;;;;10.85;6.78;;;;;;;;;;5027754;28;20073;-83
2023/06/17 10:37:51;;;;;;;13.75;6.63;;;;;;;;;;5027035;28;20037;-81
2023/06/17 10:40:27;;;;;;;12.82;7.18;;;;;;;;;;5023234;28;20038;-79
2023/06/17 10:43:02;;;;;;;12.90;6.93;;;;;;;;;;5029034;28;20045;-80
2023/06/17 10:45:30;;;;;;;11.57;7.03;;;;;;;;;;5029836;28;20049;-80
2023/06/17 10:48:16;;;;;;;9.80;6.35;;;;;;;;;;5029382;28;20049;-82
2023/06/17 10:50:43;;;;;;;11.70;6.72;;;;;;;;;;5027633;28;20049;-81
2023/06/17 10:53:15;;;;;;;9.25;6.75;;;;;;;;;;5026971;28;20118;-81
2023/06/17 10:55:41;;;;;;;9.20;6.50;;;;;;;;;;5028005;28;20049;-83
2023/06/17 10:58:09;;;;;;;11.57;6.40;;;;;;;;;;5034889;28;20156;-82
2023/06/17 11:00:35;;;;;;;12.90;7.07;;;;;;;;;;5047613;28;20044;-80
2023/06/17 11:03:02;;;;;;;11.10;7.43;;;;;;;;;;5049954;28;20041;-80
2023/06/17 11:05:33;;;;;;;11.27;7.13;;;;;;;;;;5048581;28;20037;-81
2023/06/17 11:08:00;;;;;;;14.02;7.25;;;;;;;;;;5028900;28;20045;-79
2023/06/17 11:10:27;;;;;;;11.77;7.60;;;;;;;;;;5026146;28;20106;-80
2023/06/17 11:12:54;;;;;;;9.38;7.10;;;;;;;;;;5027423;28;20132;-81
2023/06/17 11:15:23;;;;;;;10.00;6.75;;;;;;;;;;5028188;28;20045;-80
2023/06/17 11:18:00;;;;;;;9.80;6.38;;;;;;;;;;5026581;28;20175;-81
2023/06/17 11:20:27;;;;;;;10.35;5.78;;;;;;;;;;5031079;28;20041;-81
2023/06/17 11:22:54;;;;;;;10.27;5.68;;;;;;;;;;5032891;28;20041;-82
2023/06/17 11:25:20;;;;;;;10.13;5.72;;;;;;;;;;5032903;28;20169;-82
2023/06/17 11:28:05;;;;;;;8.25;5.90;;;;;;;;;;5031893;28;20037;-80
2023/06/17 11:30:32;;;;;;;7.45;5.70;;;;;;;;;;5032636;28;20105;-80
2023/06/17 11:32:59;;;;;;;16.35;5.85;;;;;;;;;;5033210;28;20046;-81
2023/06/17 11:35:25;;;;;;;7.05;5.40;;;;;;;;;;5032911;28;20414;-81
2023/06/17 11:37:55;;;;;;;9.32;5.68;;;;;;;;;;5031987;28;20112;-81
2023/06/17 11:40:22;;;;;;;9.27;5.57;;;;;;;;;;5028152;28;20064;-80
2023/06/17 11:42:49;;;;;;;8.65;5.05;;;;;;;;;;5030597;28;20091;-80
2023/06/17 11:45:16;;;;;;;11.90;5.40;;;;;;;;;;5032963;28;20038;-81
2023/06/17 11:47:42;;;;;;;9.48;5.22;;;;;;;;;;5033221;28;20441;-81
2023/06/17 11:50:11;;;;;;;8.18;5.60;;;;;;;;;;5031833;28;20053;-82
2023/06/17 11:52:38;;;;;;;7.15;5.07;;;;;;;;;;5029926;28;20520;-80
2023/06/17 11:55:05;;;;;;;12.82;5.32;;;;;;;;;;5014973;28;20072;-82
2023/06/17 11:57:32;;;;;;;6.93;5.43;;;;;;;;;;5032173;28;20107;-80
2023/06/17 12:00:04;;;;;;;12.95;5.93;;;;;;;;;;5025213;28;20045;-80
2023/06/17 12:02:37;;;;;;;6.88;5.72;;;;;;;;;;5028145;28;20065;-80
2023/06/17 12:05:04;;;;;;;6.47;5.18;;;;;;;;;;5032814;28;20049;-80
2023/06/17 12:07:39;;;;;;;8.45;5.05;;;;;;;;;;5030804;28;20049;-82
2023/06/17 12:10:06;;;;;;;8.33;4.93;;;;;;;;;;5028939;28;20559;-83
2023/06/17 12:12:35;;;;;;;7.40;4.65;;;;;;;;;;5024850;28;20049;-81
2023/06/17 12:15:12;;;;;;;9.10;5.15;;;;;;;;;;5025276;28;20057;-81
2023/06/17 12:17:44;;;;;;;8.15;4.60;;;;;;;;;;5029791;28;20037;-80
2023/06/17 12:20:15;;;;;;;10.48;5.32;;;;;;;;;;5021270;28;20132;-82
2023/06/17 12:22:42;;;;;;;6.38;4.97;;;;;;;;;;5021207;28;20410;-84
2023/06/17 12:25:12;;;;;;;9.55;4.72;;;;;;;;;;5025243;28;20146;-80
2023/06/17 12:27:45;;;;;;;8.90;4.90;;;;;;;;;;4985441;28;20041;-80
2023/06/17 12:30:18;;;;;;;6.28;4.65;;;;;;;;;;5022777;28;20141;-82
2023/06/17 12:32:45;;;;;;;6.63;4.93;;;;;;;;;;5029880;28;20042;-82
2023/06/17 12:35:14;;;;;;;6.32;4.57;;;;;;;;;;5031348;28;20136;-81
2023/06/17 12:37:41;;;;;;;10.15;5.05;;;;;;;;;;5033432;28;20132;-81
2023/06/17 12:40:09;;;;;;;14.98;6.13;;;;;;;;;;5041563;28;20045;-80
2023/06/17 12:42:36;;;;;;;5.93;4.57;;;;;;;;;;5030794;28;20688;-80
2023/06/17 12:45:06;;;;;;;5.55;4.60;;;;;;;;;;5030295;28;20050;-82
2023/06/17 12:47:33;;;;;;;6.85;4.55;;;;;;;;;;5029797;28;20103;-82
2023/06/17 12:50:00;;;;;;;8.02;5.13;;;;;;;;;;5028846;28;20152;-83
2023/06/17 12:52:27;;;;;;;9.57;4.72;;;;;;;;;;5011789;28;20045;-83
2023/06/17 12:54:58;;;;;;;9.32;4.80;;;;;;;;;;5029186;28;20076;-82
2023/06/17 12:57:25;;;;;;;11.38;5.18;;;;;;;;;;5026323;28;20049;-81
2023/06/17 12:59:52;;;;;;;8.27;5.13;;;;;;;;;;5007679;28;20053;-82
2023/06/17 13:02:19;;;;;;;6.32;4.60;;;;;;;;;;5008989;28;20050;-83
2023/06/17 13:04:45;;;;;;;6.15;4.35;;;;;;;;;;5015030;28;20049;-82
2023/06/17 13:07:12;;;;;;;7.35;4.88;;;;;;;;;;5020870;28;20056;-84
2023/06/17 13:09:39;;;;;;;7.75;4.45;;;;;;;;;;5022128;28;20059;-84
2023/06/17 13:12:05;;;;;;;6.75;4.38;;;;;;;;;;5029938;28;20053;-81
2023/06/17 13:14:34;;;;;;;7.90;5.00;;;;;;;;;;5024808;28;20068;-83
2023/06/17 13:17:00;;;;;;;9.48;4.30;;;;;;;;;;5025039;28;20045;-83
2023/06/17 13:19:27;;;;;;;6.18;4.20;;;;;;;;;;5028068;28;20041;-81
2023/06/17 13:21:54;;;;;;;7.45;4.72;;;;;;;;;;5030748;28;20049;-82
2023/06/17 13:24:20;;;;;;;8.52;4.60;;;;;;;;;;5024416;28;20152;-80
2023/06/17 13:26:47;;;;;;;5.05;4.13;;;;;;;;;;5013949;28;20048;-81
2023/06/17 13:29:14;;;;;;;7.55;4.40;;;;;;;;;;5023616;28;20390;-85
2023/06/17 13:31:40;;;;;;;13.50;5.20;;;;;;;;;;5022331;28;20136;-83
2023/06/17 13:34:07;;;;;;;9.57;5.03;;;;;;;;;;5025580;28;20095;-82
2023/06/17 13:36:36;;;;;;;12.20;5.20;;;;;;;;;;5020627;28;20077;-81
2023/06/17 13:39:02;;;;;;;9.48;5.43;;;;;;;;;;5024201;28;20041;-82
2023/06/17 13:41:30;;;;;;;8.68;5.18;;;;;;;;;;5021396;28;20135;-84
2023/06/17 13:43:57;;;;;;;9.65;5.28;;;;;;;;;;5024395;28;20068;-80
2023/06/17 13:46:23;;;;;;;9.15;5.32;;;;;;;;;;5030037;28;20283;-83
2023/06/17 13:48:50;;;;;;;10.00;5.10;;;;;;;;;;5022049;28;20053;-83
2023/06/17 13:51:18;;;;;;;11.48;5.43;;;;;;;;;;5029264;28;20391;-83
2023/06/17 13:53:44;;;;;;;6.47;5.00;;;;;;;;;;5028133;28;20052;-83
2023/06/17 13:56:11;;;;;;;10.57;5.20;;;;;;;;;;5029220;28;20077;-82
2023/06/17 13:58:38;;;;;;;5.93;4.65;;;;;;;;;;5031272;28;20252;-82
2023/06/17 14:01:05;;;;;;;8.57;5.07;;;;;;;;;;5031626;28;20080;-83
2023/06/17 14:03:31;;;;;;;7.38;5.18;;;;;;;;;;5029280;28;20041;-83
2023/06/17 14:05:58;;;;;;;8.40;5.10;;;;;;;;;;5034446;28;20049;-80
2023/06/17 14:08:25;;;;;;;10.85;4.63;;;;;;;;;;5028799;28;20045;-84
2023/06/17 14:10:51;;;;;;;9.43;5.20;;;;;;;;;;5034708;28;20068;-82
2023/06/17 14:13:18;;;;;;;10.73;4.57;;;;;;;;;;5037476;28;20057;-84
2023/06/17 14:15:45;;;;;;;8.38;5.18;;;;;;;;;;5055062;28;20072;-84
2023/06/17 14:18:12;;;;;;;5.97;4.47;;;;;;;;;;5052352;28;20581;-83
2023/06/17 14:20:38;;;;;;;10.10;5.22;;;;;;;;;;5040235;28;20076;-85
2023/06/17 14:23:07;;;;;;;5.28;3.97;;;;;;;;;;5041098;28;20043;-85
2023/06/17 14:25:34;;;;;;;6.45;4.45;;;;;;;;;;5042873;28;20045;-85
2023/06/17 14:28:02;;;;;;;8.13;4.40;;;;;;;;;;5038652;28;20090;-83
2023/06/17 14:30:29;;;;;;;4.72;3.83;;;;;;;;;;5037805;28;20061;-80
2023/06/17 14:32:56;;;;;;;8.05;4.47;;;;;;;;;;5031290;28;20396;-83
2023/06/17 14:35:23;;;;;;;8.43;4.40;;;;;;;;;;5031591;28;20442;-82
2023/06/17 14:37:49;;;;;;;6.93;4.85;;;;;;;;;;5034857;28;20140;-81